Time;durP1;ratioP1;P1;durP2;ratioP2;P2;SDS_P1;SDS_P2;PMS_P1;PMS_P2;Temp;Humidity;BMP_temperature;BMP_pressure;BME280_temperature;BME280_humidity;BME280_pressure;Samples;Min_cycle;Max_cycle;Signal;HPM_P1;HPM_P2
2023/04/01 00:01:13;;;;;;;2.35;0.88;;;;;;;17.47;35.48;102191.41;4999809;28;20030;-41
2023/04/01 00:03:40;;;;;;;3.10;0.93;;;;;;;17.31;35.68;102198.16;5012959;28;20037;-41
2023/04/01 00:06:07;;;;;;;6.28;1.00;;;;;;;17.09;37.18;102197.66;5013301;28;20072;-42
2023/04/01 00:08:33;;;;;;;1.25;0.57;;;;;;;17.15;38.47;102200.34;5009262;28;20069;-42
2023/04/01 00:10:59;;;;;;;3.33;0.88;;;;;;;17.18;38.92;102180.16;5013715;28;20478;-41
2023/04/01 00:13:26;;;;;;;3.88;1.20;;;;;;;17.09;37.46;102186.84;5009803;28;20477;-40
2023/04/01 00:15:54;;;;;;;2.90;1.10;;;;;;;17.00;38.01;102191.69;5008669;28;20029;-41
2023/04/01 00:18:21;;;;;;;4.63;1.05;;;;;;;17.07;37.22;102187.06;4995174;28;20030;-42
2023/04/01 00:20:50;;;;;;;2.45;1.05;;;;;;;16.89;36.45;102182.38;4997827;28;20031;-41
2023/04/01 00:23:17;;;;;;;4.32;1.00;;;;;;;16.79;36.86;102190.13;4993831;28;20558;-41
2023/04/01 00:25:46;;;;;;;3.15;0.90;;;;;;;16.71;37.07;102186.81;4994488;28;20042;-44
2023/04/01 00:28:13;;;;;;;2.53;0.80;;;;;;;16.71;37.45;102195.78;5005057;28;20084;-43
2023/04/01 00:30:39;;;;;;;4.78;1.10;;;;;;;16.80;37.38;102191.78;5013126;28;20026;-41
2023/04/01 00:33:05;;;;;;;4.28;0.95;;;;;;;16.69;37.52;102194.28;5012359;28;20124;-41
2023/04/01 00:35:32;;;;;;;2.85;1.20;;;;;;;16.69;37.64;102195.13;5013868;28;20479;-42
2023/04/01 00:37:59;;;;;;;3.22;0.93;;;;;;;16.51;37.48;102187.69;5013568;28;20503;-40
2023/04/01 00:40:28;;;;;;;1.60;0.85;;;;;;;16.40;38.38;102198.34;5013214;28;20030;-41
2023/04/01 00:42:55;;;;;;;2.70;1.25;;;;;;;16.09;39.39;102195.25;5013447;28;20054;-41
2023/04/01 00:45:38;;;;;;;1.73;0.85;;;;;;;15.90;39.99;102193.41;5012879;28;20048;-41
2023/04/01 00:48:20;;;;;;;3.83;1.13;;;;;;;15.79;41.82;102194.03;5013777;28;20509;-41
2023/04/01 00:51:11;;;;;;;3.38;1.00;;;;;;;15.77;42.57;102188.03;5011943;28;20134;-41
2023/04/01 00:53:44;;;;;;;3.78;1.25;;;;;;;15.87;42.83;102184.88;5013116;28;20038;-41
2023/04/01 00:56:25;;;;;;;6.18;0.85;;;;;;;15.59;41.06;102188.59;5013327;28;20030;-43
2023/04/01 00:58:58;;;;;;;4.32;1.30;;;;;;;15.55;41.53;102185.47;5000993;28;20030;-44
2023/04/01 01:01:25;;;;;;;3.65;1.23;;;;;;;15.38;41.21;102186.91;5012896;28;20512;-44
2023/04/01 01:03:51;;;;;;;1.75;0.90;;;;;;;15.24;41.92;102196.84;5012767;28;20076;-45
2023/04/01 01:06:39;;;;;;;3.05;1.35;;;;;;;15.41;41.51;102185.66;5013244;28;20105;-43
2023/04/01 01:09:27;;;;;;;2.85;1.08;;;;;;;15.25;41.79;102194.97;5012178;28;20030;-44
2023/04/01 01:12:16;;;;;;;4.75;1.13;;;;;;;15.18;41.50;102196.81;5013214;28;20050;-43
2023/04/01 01:15:07;;;;;;;4.50;1.27;;;;;;;15.13;41.32;102194.72;5011871;28;20041;-44
2023/04/01 01:17:50;;;;;;;3.85;1.17;;;;;;;14.96;42.87;102196.97;4993260;28;20383;-41
2023/04/01 01:20:28;;;;;;;4.20;1.20;;;;;;;14.91;45.04;102196.72;4992756;28;20102;-43
2023/04/01 01:23:32;;;;;;;2.30;1.20;;;;;;;14.98;45.08;102200.28;5004557;28;20037;-43
2023/04/01 01:26:01;;;;;;;5.90;1.20;;;;;;;14.87;45.16;102197.31;5011692;28;20038;-42
2023/04/01 01:28:39;;;;;;;3.42;1.40;;;;;;;14.84;46.29;102212.06;5011044;28;20034;-43
2023/04/01 01:31:28;;;;;;;5.90;1.33;;;;;;;14.86;45.82;102211.84;5008808;28;20041;-43
2023/04/01 01:34:10;;;;;;;8.27;1.95;;;;;;;14.89;46.92;102212.28;5001647;28;20036;-44
2023/04/01 01:36:38;;;;;;;4.75;1.50;;;;;;;14.76;46.76;102213.03;4993723;28;20034;-42
2023/04/01 01:39:08;;;;;;;4.22;1.52;;;;;;;14.91;47.55;102212.91;4992678;28;20035;-47
2023/04/01 01:41:36;;;;;;;5.53;1.70;;;;;;;14.73;47.58;102204.53;5004359;28;20159;-44
2023/04/01 01:44:07;;;;;;;4.65;1.60;;;;;;;14.70;47.24;102204.94;5012305;28;20494;-45
2023/04/01 01:46:33;;;;;;;5.40;1.70;;;;;;;14.62;48.08;102208.63;5010135;28;20040;-45
2023/04/01 01:49:02;;;;;;;4.43;1.30;;;;;;;14.45;48.50;102213.47;4994779;28;20065;-43
2023/04/01 01:51:29;;;;;;;4.55;1.58;;;;;;;14.50;48.43;102216.44;4996595;28;20042;-43
2023/04/01 01:53:55;;;;;;;5.20;1.60;;;;;;;14.44;49.43;102227.16;5010570;28;20068;-43
2023/04/01 01:56:27;;;;;;;8.05;1.73;;;;;;;14.36;50.10;102211.97;5007239;28;20045;-42
2023/04/01 01:58:59;;;;;;;7.28;1.70;;;;;;;14.49;49.98;102204.00;4992841;28;20037;-42
2023/04/01 02:01:30;;;;;;;7.32;1.60;;;;;;;14.46;50.31;102208.91;5001746;28;20049;-44
2023/04/01 02:03:58;;;;;;;6.55;2.25;;;;;;;14.44;50.63;102213.69;5012455;28;20176;-44
2023/04/01 02:06:30;;;;;;;4.35;1.30;;;;;;;14.45;50.24;102199.19;5010862;28;20486;-42
2023/04/01 02:09:03;;;;;;;6.05;1.90;;;;;;;14.34;51.06;102199.75;5006368;28;20041;-42
2023/04/01 02:11:51;;;;;;;5.78;1.60;;;;;;;14.47;50.73;102191.75;4997078;28;20117;-42
2023/04/01 02:14:33;;;;;;;7.93;1.90;;;;;;;13.98;51.64;102188.09;4991924;28;20026;-45
2023/04/01 02:17:09;;;;;;;8.18;1.90;;;;;;;14.15;51.03;102195.88;4998014;28;20036;-44
2023/04/01 02:19:41;;;;;;;6.13;1.42;;;;;;;13.80;49.65;102192.28;4992724;28;20617;-43
2023/04/01 02:22:13;;;;;;;8.25;1.88;;;;;;;13.46;49.69;102196.53;4992299;28;20165;-42
2023/04/01 02:24:42;;;;;;;3.35;1.40;;;;;;;13.12;49.65;102195.31;5011050;28;20022;-40
2023/04/01 02:27:10;;;;;;;2.83;1.08;;;;;;;12.98;50.37;102195.34;5006067;28;20031;-42
2023/04/01 02:29:36;;;;;;;2.53;1.10;;;;;;;13.08;50.59;102195.88;4998160;28;20026;-40
2023/04/01 02:32:05;;;;;;;3.53;1.10;;;;;;;12.91;49.52;102196.09;5003822;28;20029;-40
2023/04/01 02:34:32;;;;;;;3.63;1.30;;;;;;;12.64;50.20;102196.78;5012852;28;20423;-40
2023/04/01 02:36:59;;;;;;;4.75;1.02;;;;;;;12.70;50.09;102198.72;5014125;28;20030;-41
2023/04/01 02:39:26;;;;;;;6.55;1.73;;;;;;;12.61;49.97;102194.50;4996541;28;20372;-40
2023/04/01 02:41:52;;;;;;;3.10;1.25;;;;;;;12.68;50.35;102192.72;4995287;28;20407;-40
2023/04/01 02:44:18;;;;;;;2.50;1.40;;;;;;;12.54;51.14;102198.91;5008204;28;20030;-40
2023/04/01 02:46:45;;;;;;;3.70;1.00;;;;;;;12.55;51.00;102204.13;5015877;28;20154;-40
2023/04/01 02:49:11;;;;;;;2.42;1.42;;;;;;;12.43;52.14;102205.59;5012195;28;20045;-41
2023/04/01 02:51:38;;;;;;;6.55;1.30;;;;;;;12.46;51.78;102199.03;5004767;28;20046;-40
2023/04/01 02:54:04;;;;;;;4.00;1.42;;;;;;;12.53;50.92;102203.47;5015211;28;20069;-40
2023/04/01 02:56:31;;;;;;;3.00;1.55;;;;;;;12.44;50.76;102204.59;5002163;28;20089;-41
2023/04/01 02:58:57;;;;;;;8.65;1.95;;;;;;;12.63;49.86;102201.34;5005230;28;20048;-40
2023/04/01 03:01:23;;;;;;;3.83;1.40;;;;;;;12.40;50.75;102204.13;5002597;28;20062;-40
2023/04/01 03:03:50;;;;;;;4.75;1.40;;;;;;;12.47;50.30;102201.53;4996043;28;20046;-40
2023/04/01 03:06:17;;;;;;;4.28;1.45;;;;;;;12.33;50.92;102210.44;4995520;28;20026;-40
2023/04/01 03:08:44;;;;;;;4.53;1.85;;;;;;;12.32;50.86;102214.94;5002535;28;20092;-41
2023/04/01 03:11:11;;;;;;;5.20;1.67;;;;;;;12.24;51.28;102217.72;5015293;28;20414;-41
2023/04/01 03:13:37;;;;;;;7.60;1.50;;;;;;;12.02;52.44;102215.91;5007244;28;20088;-41
2023/04/01 03:16:04;;;;;;;7.10;1.60;;;;;;;12.04;52.20;102219.25;5011222;28;20068;-40
2023/04/01 03:18:30;;;;;;;3.25;1.88;;;;;;;12.01;52.45;102216.94;5015802;28;20026;-40
2023/04/01 03:20:57;;;;;;;5.55;1.45;;;;;;;11.72;53.09;102225.72;5015027;28;20044;-40
2023/04/01 03:23:24;;;;;;;5.40;1.60;;;;;;;11.66;53.65;102229.09;4997686;28;20034;-39
2023/04/01 03:25:50;;;;;;;3.72;1.85;;;;;;;11.56;54.49;102240.06;5003207;28;20502;-39
2023/04/01 03:28:17;;;;;;;4.90;1.58;;;;;;;11.44;55.24;102244.16;5015113;28;20030;-39
2023/04/01 03:30:43;;;;;;;3.33;1.85;;;;;;;11.32;55.98;102255.28;5014077;28;20033;-39
2023/04/01 03:33:09;;;;;;;3.78;1.15;;;;;;;11.48;56.01;102258.88;5015256;28;20057;-40
2023/04/01 03:35:36;;;;;;;4.57;1.58;;;;;;;11.47;56.21;102255.38;5013317;28;20061;-39
2023/04/01 03:38:03;;;;;;;8.27;1.90;;;;;;;11.11;57.38;102263.13;4994530;28;20054;-40
2023/04/01 03:40:29;;;;;;;5.10;1.73;;;;;;;11.22;57.33;102252.00;4997750;28;20057;-40
2023/04/01 03:42:56;;;;;;;6.70;1.77;;;;;;;11.14;57.80;102261.91;4997066;28;20061;-39
2023/04/01 03:45:22;;;;;;;7.65;1.90;;;;;;;11.01;58.33;102257.13;4996708;28;20079;-41
2023/04/01 03:47:48;;;;;;;8.15;2.17;;;;;;;10.97;58.57;102266.53;5014430;28;20060;-40
2023/04/01 03:50:15;;;;;;;4.88;1.67;;;;;;;11.09;57.77;102265.13;5012743;28;20533;-40
2023/04/01 03:52:41;;;;;;;4.78;1.92;;;;;;;11.07;57.52;102259.13;5007036;28;20018;-41
2023/04/01 03:55:07;;;;;;;6.43;1.65;;;;;;;11.13;57.33;102261.09;4995211;28;20032;-40
2023/04/01 03:57:34;;;;;;;3.03;1.48;;;;;;;11.07;57.40;102259.13;5003368;28;20022;-40
2023/04/01 04:00:00;;;;;;;4.22;1.48;;;;;;;11.00;57.78;102261.66;4994887;28;20038;-40
2023/04/01 04:02:26;;;;;;;8.55;1.83;;;;;;;11.13;58.09;102258.41;4994014;28;20031;-42
2023/04/01 04:04:52;;;;;;;3.78;1.33;;;;;;;11.06;58.41;102255.59;5008818;28;20030;-40
2023/04/01 04:07:19;;;;;;;4.63;1.30;;;;;;;11.06;58.30;102252.91;5013998;28;20113;-40
2023/04/01 04:09:45;;;;;;;3.72;1.42;;;;;;;11.09;58.44;102246.38;4999901;28;20617;-40
2023/04/01 04:12:11;;;;;;;4.32;1.63;;;;;;;11.08;58.46;102255.41;4994605;28;20168;-40
2023/04/01 04:14:37;;;;;;;4.05;1.73;;;;;;;11.29;57.14;102258.34;5000573;28;20117;-40
2023/04/01 04:17:04;;;;;;;6.18;1.90;;;;;;;11.28;56.57;102256.66;5014344;28;20034;-40
2023/04/01 04:19:35;;;;;;;6.65;1.98;;;;;;;10.73;58.27;102260.25;5014086;28;20018;-40
2023/04/01 04:22:02;;;;;;;5.40;1.63;;;;;;;10.95;57.95;102263.19;4999566;28;20026;-41
2023/04/01 04:24:28;;;;;;;3.40;1.50;;;;;;;10.96;58.22;102264.84;4994460;28;20026;-41
2023/04/01 04:26:55;;;;;;;4.45;1.65;;;;;;;10.93;58.24;102265.19;4994528;28;20104;-41
2023/04/01 04:29:22;;;;;;;4.82;1.60;;;;;;;10.90;58.22;102260.19;4994154;28;20033;-41
2023/04/01 04:31:48;;;;;;;5.13;1.63;;;;;;;10.91;58.10;102267.22;5001983;28;20029;-41
2023/04/01 04:34:15;;;;;;;4.65;1.50;;;;;;;10.91;58.26;102272.56;5013669;28;20030;-40
2023/04/01 04:36:41;;;;;;;3.95;1.60;;;;;;;10.86;58.44;102272.25;5013801;28;20112;-39
2023/04/01 04:39:07;;;;;;;6.05;2.03;;;;;;;10.84;58.61;102273.28;5014012;28;20490;-41
2023/04/01 04:41:33;;;;;;;3.47;1.70;;;;;;;10.76;58.73;102272.44;5013309;28;20038;-41
2023/04/01 04:44:00;;;;;;;6.93;2.40;;;;;;;10.56;59.10;102272.00;5013517;28;20022;-41
2023/04/01 04:46:26;;;;;;;4.25;2.42;;;;;;;10.53;59.19;102275.84;4997246;28;20387;-43
2023/04/01 04:48:52;;;;;;;3.22;2.05;;;;;;;10.54;59.27;102280.19;4995234;28;20117;-41
2023/04/01 04:51:20;;;;;;;5.28;2.47;;;;;;;10.31;60.60;102279.22;4993558;28;20047;-40
2023/04/01 04:53:47;;;;;;;7.38;2.67;;;;;;;10.35;60.65;102277.91;5005985;28;20497;-40
2023/04/01 04:56:21;;;;;;;6.30;2.15;;;;;;;10.39;60.50;102283.75;5013332;28;20180;-41
2023/04/01 04:58:48;;;;;;;5.00;2.33;;;;;;;10.29;61.10;102279.41;5013456;28;20474;-39
2023/04/01 05:01:16;;;;;;;5.95;1.90;;;;;;;10.24;61.29;102291.63;5013247;28;20096;-39
2023/04/01 05:03:42;;;;;;;3.47;1.70;;;;;;;10.26;61.54;102293.13;5013069;28;20143;-41
2023/04/01 05:06:10;;;;;;;6.40;2.00;;;;;;;10.03;62.47;102287.56;5009500;28;20101;-40
2023/04/01 05:08:38;;;;;;;8.25;2.47;;;;;;;9.66;63.73;102295.22;5013158;28;20033;-40
2023/04/01 05:11:11;;;;;;;5.07;2.40;;;;;;;9.26;65.77;102292.28;5012969;28;20030;-41
2023/04/01 05:13:38;;;;;;;3.42;1.85;;;;;;;9.24;65.52;102291.63;5013225;28;20021;-40
2023/04/01 05:16:11;;;;;;;7.20;2.55;;;;;;;9.30;65.33;102294.63;4996896;28;20476;-40
2023/04/01 05:18:38;;;;;;;5.63;2.45;;;;;;;9.00;66.43;102296.88;4993535;28;20042;-41
2023/04/01 05:21:05;;;;;;;7.07;2.20;;;;;;;8.32;69.00;102299.41;4993227;28;20434;-40
2023/04/01 05:23:32;;;;;;;4.65;2.05;;;;;;;8.77;67.24;102306.41;4994036;28;20031;-41
2023/04/01 05:26:03;;;;;;;4.78;2.22;;;;;;;8.99;66.08;102306.72;4993280;28;20019;-40
2023/04/01 05:28:29;;;;;;;4.05;1.63;;;;;;;9.09;65.76;102311.09;4993178;28;20026;-40
2023/04/01 05:31:00;;;;;;;2.90;1.65;;;;;;;9.16;65.43;102310.31;4993046;28;20050;-39
2023/04/01 05:33:26;;;;;;;6.70;1.88;;;;;;;9.14;65.20;102308.78;4993211;28;20030;-40
2023/04/01 05:35:53;;;;;;;4.82;1.77;;;;;;;9.13;65.11;102309.78;4993186;28;20026;-39
2023/04/01 05:38:19;;;;;;;6.35;2.40;;;;;;;9.14;65.11;102301.59;4993364;28;20076;-41
2023/04/01 05:40:45;;;;;;;3.72;1.88;;;;;;;9.13;65.08;102302.59;4993501;28;20519;-40
2023/04/01 05:43:12;;;;;;;4.32;2.17;;;;;;;8.99;65.71;102305.84;5010249;28;20117;-40
2023/04/01 05:45:39;;;;;;;8.82;2.78;;;;;;;8.00;69.51;102303.50;5012186;28;20022;-40
2023/04/01 05:48:05;;;;;;;5.57;2.28;;;;;;;7.77;71.30;102296.94;5012789;28;20038;-40
2023/04/01 05:50:32;;;;;;;8.65;2.55;;;;;;;7.94;70.42;102294.28;5010590;28;20128;-41
2023/04/01 05:52:58;;;;;;;7.82;3.03;;;;;;;8.04;70.09;102299.53;5012402;28;20037;-40
2023/04/01 05:55:24;;;;;;;8.25;3.03;;;;;;;7.76;71.38;102300.59;5012498;28;20026;-41
2023/04/01 05:57:50;;;;;;;5.40;2.20;;;;;;;7.74;71.59;102292.75;5011298;28;20375;-40
2023/04/01 06:00:19;;;;;;;5.65;2.05;;;;;;;8.01;70.26;102296.34;4995205;28;20050;-40
2023/04/01 06:02:46;;;;;;;6.22;2.30;;;;;;;8.25;69.16;102301.88;4992319;28;20483;-40
2023/04/01 06:05:19;;;;;;;6.07;2.75;;;;;;;8.44;68.58;102301.72;4993124;28;20100;-40
2023/04/01 06:07:46;;;;;;;14.48;10.15;;;;;;;7.43;72.18;102300.25;4992149;28;20034;-41
2023/04/01 06:10:20;;;;;;;14.07;5.57;;;;;;;7.65;71.67;102299.00;5008909;28;20036;-39
2023/04/01 06:12:59;;;;;;;9.80;3.90;;;;;;;7.94;70.23;102293.47;5011055;28;20073;-39
2023/04/01 06:15:45;;;;;;;8.45;2.92;;;;;;;7.96;70.25;102291.47;4996803;28;20038;-39
2023/04/01 06:18:11;;;;;;;7.32;2.17;;;;;;;7.84;70.58;102293.53;4995128;28;20026;-40
2023/04/01 06:20:51;;;;;;;8.25;2.75;;;;;;;7.43;72.16;102286.94;4999953;28;20026;-39
2023/04/01 06:23:29;;;;;;;6.32;2.63;;;;;;;7.77;70.62;102283.59;5005731;28;20042;-40
2023/04/01 06:26:14;;;;;;;4.95;2.20;;;;;;;7.59;71.22;102289.78;5010193;28;20080;-40
2023/04/01 06:29:17;;;;;;;6.67;2.77;;;;;;;7.69;71.32;102289.72;5012414;28;20414;-41
2023/04/01 06:32:26;;;;;;;7.55;2.13;;;;;;;8.04;69.49;102291.53;5007340;28;20291;-41
2023/04/01 06:35:01;;;;;;;3.80;1.92;;;;;;;7.50;71.50;102298.69;4992012;28;20129;-41
2023/04/01 06:37:27;;;;;;;;;;;;;;;7.66;70.73;102301.53;5005035;28;20030;-41
2023/04/01 06:40:06;;;;;;;;;;;;;;;7.73;70.30;102298.25;5012449;28;19932;-40
2023/04/01 06:42:40;;;;;;;5.55;1.60;;;;;;;7.64;70.55;102302.66;5010280;28;19943;-40
2023/04/01 06:45:33;;;;;;;6.28;1.67;;;;;;;7.62;70.52;102305.47;5011950;28;20363;-40
2023/04/01 06:48:05;;;;;;;5.18;2.00;;;;;;;7.43;71.09;102302.06;4998536;28;20069;-40
2023/04/01 06:50:45;;;;;;;8.27;2.10;;;;;;;6.50;75.03;102307.38;5006787;28;20042;-40
2023/04/01 06:53:23;;;;;;;5.78;2.08;;;;;;;6.22;76.65;102300.25;4992445;28;20065;-40
2023/04/01 06:56:14;;;;;;;10.90;2.28;;;;;;;6.24;76.86;102296.50;5005237;28;20069;-39
2023/04/01 06:58:46;;;;;;;6.03;2.25;;;;;;;6.77;74.79;102308.41;5011697;28;20034;-39
2023/04/01 07:01:26;;;;;;;6.13;1.85;;;;;;;6.37;76.44;102304.16;5011673;28;20025;-40
2023/04/01 07:04:14;;;;;;;5.38;2.60;;;;;;;6.15;77.23;102302.66;5010142;28;20025;-39
2023/04/01 07:06:51;;;;;;;4.80;2.40;;;;;;;6.06;77.63;102304.34;4994284;28;20026;-39
2023/04/01 07:09:39;;;;;;;7.38;2.25;;;;;;;5.89;78.56;102306.84;5011300;28;20034;-40
2023/04/01 07:12:33;;;;;;;7.28;2.47;;;;;;;6.11;77.51;102300.41;5012024;28;20034;-40
2023/04/01 07:15:25;;;;;;;8.18;2.38;;;;;;;6.42;76.25;102306.41;5015099;28;20065;-40
2023/04/01 07:18:00;;;;;;;7.90;2.60;;;;;;;6.14;76.93;102313.44;5015509;28;20474;-40
2023/04/01 07:20:31;;;;;;;6.65;2.15;;;;;;;5.65;79.04;102315.19;5006717;28;20026;-40
2023/04/01 07:23:01;;;;;;;8.63;2.35;;;;;;;5.54;79.73;102319.63;5007272;28;20056;-40
2023/04/01 07:25:51;;;;;;;5.75;1.90;;;;;;;5.54;79.77;102311.66;5008641;28;20117;-40
2023/04/01 07:28:18;;;;;;;7.80;2.42;;;;;;;5.37;80.69;102307.03;4996802;28;20034;-41
2023/04/01 07:31:05;;;;;;;8.68;2.22;;;;;;;5.25;81.32;102313.44;5002481;28;20036;-40
2023/04/01 07:34:03;;;;;;;8.43;2.38;;;;;;;5.22;81.35;102309.25;5001443;28;20104;-39
2023/04/01 07:36:53;;;;;;;7.13;2.13;;;;;;;5.26;81.18;102309.78;4976246;28;20555;-40
2023/04/01 07:39:40;;;;;;;4.72;2.10;;;;;;;5.06;82.04;102313.38;4997226;28;20035;-39
2023/04/01 07:42:38;;;;;;;6.57;2.10;;;;;;;5.13;81.83;102312.69;4995712;28;20077;-40
2023/04/01 07:45:22;;;;;;;9.55;2.47;;;;;;;5.01;82.02;102316.44;4996512;28;20038;-39
2023/04/01 07:48:25;;;;;;;8.10;2.70;;;;;;;4.99;82.21;102310.38;4995763;28;20114;-40
2023/04/01 07:50:52;;;;;;;6.55;2.22;;;;;;;5.08;81.93;102306.09;4994617;28;20051;-40
2023/04/01 07:53:27;;;;;;;7.82;2.55;;;;;;;4.95;82.68;102306.34;5005029;28;20455;-40
2023/04/01 07:55:53;;;;;;;6.32;2.22;;;;;;;4.94;82.50;102310.81;4996609;28;20022;-39
2023/04/01 07:58:45;;;;;;;7.20;2.28;;;;;;;4.93;82.56;102305.63;5000367;28;20034;-39
2023/04/01 08:01:23;;;;;;;6.65;2.10;;;;;;;4.90;82.65;102304.09;5014000;28;20036;-40
2023/04/01 08:03:56;;;;;;;10.32;2.60;;;;;;;4.82;82.95;102305.72;5001462;28;20030;-39
2023/04/01 08:06:31;;;;;;;7.35;2.58;;;;;;;4.90;83.26;102301.44;4994784;28;20081;-40
2023/04/01 08:09:10;;;;;;;5.03;2.10;;;;;;;4.83;83.15;102300.28;4994763;28;20494;-40
2023/04/01 08:12:04;;;;;;;5.43;2.20;;;;;;;4.71;83.49;102298.66;4994397;28;20034;-40
2023/04/01 08:14:51;;;;;;;5.90;2.20;;;;;;;5.07;82.84;102304.44;4995516;28;20022;-40
2023/04/01 08:17:31;;;;;;;3.45;1.95;;;;;;;5.05;81.97;102301.88;5014563;28;20425;-40
2023/04/01 08:20:18;;;;;;;10.52;2.22;;;;;;;5.11;81.88;102305.81;5013878;28;20021;-40
2023/04/01 08:22:57;;;;;;;4.88;1.92;;;;;;;5.02;82.42;102299.53;5013988;28;20096;-40
2023/04/01 08:25:26;;;;;;;8.65;2.55;;;;;;;4.98;82.04;102293.63;5013754;28;20022;-40
2023/04/01 08:28:10;;;;;;;5.43;2.35;;;;;;;4.71;83.47;102290.72;5013900;28;20030;-39
2023/04/01 08:30:44;;;;;;;7.60;2.50;;;;;;;4.65;83.79;102289.44;4999312;28;20414;-39
2023/04/01 08:33:16;;;;;;;6.57;2.70;;;;;;;4.64;83.92;102279.78;4994225;28;20391;-40
2023/04/01 08:36:03;;;;;;;5.05;2.15;;;;;;;4.86;83.46;102275.28;5005663;28;20018;-39
2023/04/01 08:38:32;;;;;;;6.10;2.28;;;;;;;5.06;82.34;102286.84;5004974;28;20218;-39
2023/04/01 08:41:27;;;;;;;7.63;2.08;;;;;;;5.04;81.82;102285.13;4993653;28;20045;-40
2023/04/01 08:44:35;;;;;;;15.13;2.72;;;;;;;5.36;80.75;102278.81;4993234;28;20047;-40
2023/04/01 08:47:28;;;;;;;6.43;1.90;;;;;;;5.42;80.59;102283.56;4993324;28;20391;-40
2023/04/01 08:50:23;;;;;;;8.07;2.15;;;;;;;5.41;80.36;102279.22;4994119;28;20558;-40
2023/04/01 08:53:17;;;;;;;6.40;2.33;;;;;;;5.70;78.72;102278.44;5010404;28;20056;-40
2023/04/01 08:56:42;;;;;;;4.07;1.67;;;;;;;5.76;78.02;102269.91;5012430;28;20041;-40
2023/04/01 08:59:11;;;;;;;5.40;1.75;;;;;;;5.83;77.38;102255.09;4990687;28;20042;-40
2023/04/01 09:02:10;;;;;;;7.20;2.50;;;;;;;5.44;78.80;102263.03;4986651;28;20039;-40
2023/04/01 09:05:04;;;;;;;6.20;1.58;;;;;;;5.13;80.20;102256.13;4992445;28;20557;-40
2023/04/01 09:07:48;;;;;;;6.40;2.10;;;;;;;4.87;81.68;102264.53;4994395;28;20113;-40
2023/04/01 09:10:35;;;;;;;3.30;1.95;;;;;;;5.16;80.69;102269.09;4993170;28;20052;-40
2023/04/01 09:13:18;;;;;;;5.05;2.25;;;;;;;4.86;81.38;102260.22;4993584;28;20479;-40
2023/04/01 09:16:03;;;;;;;7.63;2.38;;;;;;;4.95;80.65;102267.38;4993481;28;20121;-40
2023/04/01 09:18:53;;;;;;;6.18;2.05;;;;;;;4.60;82.39;102261.63;4991824;28;20041;-40
2023/04/01 09:21:37;;;;;;;6.60;2.00;;;;;;;4.58;82.26;102260.94;4993824;28;20037;-40
2023/04/01 09:24:18;;;;;;;5.25;2.15;;;;;;;4.66;82.55;102272.53;4995201;28;20027;-40
2023/04/01 09:27:04;;;;;;;7.30;2.22;;;;;;;4.88;81.77;102263.56;5006977;28;20391;-40
2023/04/01 09:29:42;;;;;;;4.53;2.10;;;;;;;5.02;80.63;102273.81;4992437;28;20525;-39
2023/04/01 09:32:18;;;;;;;7.25;1.90;;;;;;;4.65;82.43;102281.47;4990996;28;20038;-40
2023/04/01 09:35:17;;;;;;;7.82;2.33;;;;;;;4.48;83.22;102293.53;4996748;28;20034;-40
2023/04/01 09:37:49;;;;;;;7.05;2.15;;;;;;;4.75;82.18;102290.31;4995962;28;20101;-40
2023/04/01 09:40:18;;;;;;;7.72;1.90;;;;;;;4.68;82.07;102285.69;4992760;28;20073;-40
2023/04/01 09:43:05;;;;;;;7.75;2.10;;;;;;;4.86;81.56;102278.78;4993670;28;20034;-40
2023/04/01 09:45:43;;;;;;;6.82;2.20;;;;;;;4.79;81.21;102272.34;4992957;28;20034;-40
2023/04/01 09:48:18;;;;;;;5.97;1.85;;;;;;;4.86;81.38;102278.78;4993763;28;20027;-40
2023/04/01 09:50:47;;;;;;;10.77;2.80;;;;;;;4.98;80.72;102276.88;4991952;28;20509;-40
2023/04/01 09:53:51;;;;;;;9.00;2.30;;;;;;;4.65;82.11;102275.34;4992775;28;20038;-39
2023/04/01 09:56:38;;;;;;;14.18;2.13;;;;;;;4.64;82.26;102276.31;4993444;28;20100;-39
2023/04/01 09:59:31;;;;;;;6.30;2.33;;;;;;;4.42;83.46;102267.53;4996343;28;20120;-39
2023/04/01 10:02:12;;;;;;;5.25;2.03;;;;;;;4.78;82.63;102273.31;4991301;28;20026;-40
2023/04/01 10:05:25;;;;;;;6.28;2.42;;;;;;;4.56;82.79;102273.50;4992329;28;20030;-40
2023/04/01 10:08:13;;;;;;;7.00;2.55;;;;;;;4.90;81.34;102269.59;4983030;28;20127;-40
2023/04/01 10:11:09;;;;;;;5.00;2.10;;;;;;;4.49;82.76;102274.00;4995181;28;20014;-40
2023/04/01 10:13:41;;;;;;;;;;;;;;;4.80;81.84;102273.19;4993343;28;20482;-40
2023/04/01 10:16:34;;;;;;;5.93;2.00;;;;;;;5.07;80.82;102270.75;4994143;28;20289;-39
2023/04/01 10:19:12;;;;;;;7.75;2.40;;;;;;;4.89;80.93;102269.72;5012304;28;20072;-40
2023/04/01 10:22:05;;;;;;;8.18;2.03;;;;;;;5.14;79.81;102271.06;4997022;28;20026;-40
2023/04/01 10:24:40;;;;;;;4.93;2.10;;;;;;;4.99;80.19;102267.94;4992705;28;20026;-40
2023/04/01 10:27:22;;;;;;;9.27;2.17;;;;;;;4.79;80.83;102260.91;5003598;28;20064;-39
2023/04/01 10:30:35;;;;;;;6.72;2.20;;;;;;;4.73;81.54;102255.16;5011876;28;20042;-40
2023/04/01 10:33:20;;;;;;;4.78;2.13;;;;;;;4.74;80.66;102256.81;4970738;28;20035;-39
2023/04/01 10:35:48;;;;;;;7.10;2.45;;;;;;;4.36;82.76;102265.41;4972296;28;20033;-39
2023/04/01 10:38:21;;;;;;;5.38;2.22;;;;;;;4.11;84.49;102249.88;4986371;28;20038;-39
2023/04/01 10:41:29;;;;;;;4.50;2.30;;;;;;;4.37;83.45;102245.03;4995444;28;20362;-39
2023/04/01 10:44:36;;;;;;;8.75;2.55;;;;;;;4.20;83.96;102243.81;4990209;28;20118;-39
2023/04/01 10:47:07;;;;;;;;;;;;;;;4.04;85.19;102235.50;4923907;29;20441;-40
2023/04/01 10:49:58;;;;;;;7.20;2.47;;;;;;;4.18;84.58;102228.06;4988443;28;19929;-39
2023/04/01 10:53:01;;;;;;;8.02;2.55;;;;;;;4.37;83.92;102229.97;5011514;28;20469;-39
2023/04/01 10:55:52;;;;;;;3.35;1.70;;;;;;;4.33;83.80;102228.56;5014823;28;20552;-39
2023/04/01 10:58:39;;;;;;;7.55;2.38;;;;;;;4.27;84.10;102225.59;5011480;28;20034;-39
2023/04/01 11:02:00;;;;;;;10.43;2.35;;;;;;;4.12;85.16;102217.16;5011686;28;20030;-39
2023/04/01 11:04:41;;;;;;;5.95;2.28;;;;;;;4.24;84.97;102216.94;4993784;28;20071;-39
2023/04/01 11:07:46;;;;;;;7.55;2.65;;;;;;;4.23;84.88;102211.78;5002080;28;20074;-39
2023/04/01 11:10:36;;;;;;;7.28;2.50;;;;;;;4.21;84.60;102203.09;5015111;28;20053;-39
2023/04/01 11:13:11;;;;;;;8.57;2.38;;;;;;;4.32;84.41;102197.72;5009217;28;20040;-39
2023/04/01 11:15:58;;;;;;;8.47;2.50;;;;;;;4.41;84.13;102207.53;5014729;28;20514;-40
2023/04/01 11:18:53;;;;;;;12.02;2.72;;;;;;;4.44;83.76;102202.00;4995429;28;20045;-40
2023/04/01 11:21:40;;;;;;;5.65;2.28;;;;;;;4.72;82.71;102200.41;4996549;28;20033;-40
2023/04/01 11:24:37;;;;;;;7.20;1.95;;;;;;;4.98;81.17;102200.75;4996488;28;20033;-39
2023/04/01 11:27:54;;;;;;;5.65;2.22;;;;;;;4.69;81.65;102208.63;4995203;28;20046;-40
2023/04/01 11:30:23;;;;;;;7.97;2.25;;;;;;;4.38;83.71;102204.31;4979169;28;20038;-40
2023/04/01 11:33:28;;;;;;;7.15;2.13;;;;;;;4.18;84.95;102211.31;4995162;28;20054;-40
2023/04/01 11:36:07;;;;;;;8.82;2.38;;;;;;;4.07;85.24;102212.22;5009462;28;20081;-39
2023/04/01 11:39:08;;;;;;;8.25;2.28;;;;;;;4.13;85.36;102208.22;5014700;28;20121;-40
2023/04/01 11:41:46;;;;;;;8.02;2.30;;;;;;;4.62;84.08;102210.16;4993856;28;20034;-40
2023/04/01 11:44:28;;;;;;;6.47;2.30;;;;;;;4.75;82.50;102199.31;4995254;28;20038;-39
2023/04/01 11:47:01;;;;;;;7.35;2.60;;;;;;;4.45;83.83;102195.72;4996126;28;20105;-40
2023/04/01 11:49:37;;;;;;;8.52;2.55;;;;;;;4.20;84.96;102196.97;4994721;28;20041;-39
2023/04/01 11:52:22;;;;;;;9.40;2.50;;;;;;;3.94;86.36;102199.19;4995634;28;20058;-40
2023/04/01 11:54:56;;;;;;;5.80;2.58;;;;;;;3.88;86.72;102196.19;4994541;28;20026;-40
2023/04/01 11:57:53;;;;;;;5.95;2.20;;;;;;;3.97;86.38;102198.91;4994678;28;20426;-39
2023/04/01 12:00:31;;;;;;;6.38;2.53;;;;;;;4.05;85.96;102197.41;4993806;28;20412;-40
2023/04/01 12:03:35;;;;;;;7.78;2.20;;;;;;;4.44;84.37;102196.69;4994637;28;20546;-39
2023/04/01 12:06:19;;;;;;;5.05;2.30;;;;;;;4.40;84.58;102200.56;5003327;28;20101;-39
2023/04/01 12:08:53;;;;;;;5.35;2.25;;;;;;;4.37;84.49;102197.31;5014044;28;20077;-39
2023/04/01 12:11:28;;;;;;;5.38;2.20;;;;;;;4.46;84.29;102199.19;5003672;28;20172;-39
2023/04/01 12:14:03;;;;;;;5.85;2.30;;;;;;;4.14;85.24;102199.31;4994682;28;20022;-39
2023/04/01 12:16:45;;;;;;;9.75;2.90;;;;;;;3.83;86.84;102190.44;4995223;28;20030;-39